createdAt,value
2023-04-12T00:00:45.729Z,5.00
2023-04-12T00:02:19.158Z,2.05
2023-04-12T00:03:54.384Z,2.17
2023-04-12T00:05:28.342Z,1.92
2023-04-12T00:07:01.023Z,3.88
2023-04-12T00:08:35.114Z,2.90
2023-04-12T00:10:10.552Z,2.40
2023-04-12T00:11:43.840Z,6.50
2023-04-12T00:13:16.166Z,3.47
2023-04-12T00:14:51.068Z,3.33
2023-04-12T00:17:58.096Z,3.45
2023-04-12T00:19:31.348Z,3.85
2023-04-12T00:21:05.000Z,1.90
2023-04-12T00:22:37.429Z,4.13
2023-04-12T00:24:10.805Z,5.93
2023-04-12T00:25:43.002Z,2.90
2023-04-12T00:27:16.151Z,2.13
2023-04-12T00:28:49.920Z,1.83
2023-04-12T00:30:24.632Z,6.03
2023-04-12T00:31:58.055Z,3.53
2023-04-12T00:33:31.217Z,3.35
2023-04-12T00:35:06.830Z,1.75
2023-04-12T00:36:38.962Z,3.35
2023-04-12T00:38:12.163Z,2.58
2023-04-12T00:39:45.585Z,3.10
2023-04-12T00:41:18.060Z,3.17
2023-04-12T00:42:51.256Z,3.22
2023-04-12T00:44:23.804Z,3.10
2023-04-12T00:45:59.466Z,3.03
2023-04-12T00:47:36.351Z,2.65
2023-04-12T00:49:09.634Z,1.38
2023-04-12T00:50:44.701Z,4.13
2023-04-12T00:52:18.167Z,3.80
2023-04-12T00:53:51.586Z,3.60
2023-04-12T00:55:25.073Z,2.75
2023-04-12T00:56:58.366Z,1.17
2023-04-12T00:58:31.985Z,3.28
2023-04-12T01:00:08.070Z,3.45
2023-04-12T01:01:42.715Z,3.88
2023-04-12T01:03:16.410Z,3.88
2023-04-12T01:04:51.224Z,2.95
2023-04-12T01:06:38.505Z,2.60
2023-04-12T01:08:25.052Z,2.65
2023-04-12T01:10:10.852Z,2.78
2023-04-12T01:11:56.272Z,2.80
2023-04-12T01:13:35.890Z,3.13
2023-04-12T01:15:14.237Z,4.75
2023-04-12T01:16:53.517Z,3.55
2023-04-12T01:18:34.417Z,3.17
2023-04-12T01:20:16.497Z,3.00
2023-04-12T01:22:13.322Z,2.35
2023-04-12T01:24:03.721Z,1.20
2023-04-12T01:25:58.528Z,4.22
2023-04-12T01:27:43.707Z,3.85
2023-04-12T01:29:20.772Z,1.52
2023-04-12T01:30:56.099Z,3.75
2023-04-12T01:32:30.471Z,5.18
2023-04-12T01:34:05.772Z,2.63
2023-04-12T01:35:40.769Z,1.70
2023-04-12T01:37:19.686Z,1.98
2023-04-12T01:38:55.465Z,2.38
2023-04-12T01:40:30.564Z,2.75
2023-04-12T01:42:03.697Z,3.17
2023-04-12T01:43:43.943Z,5.07
2023-04-12T01:45:17.056Z,4.15
2023-04-12T01:46:51.686Z,3.22
2023-04-12T01:48:24.826Z,3.05
2023-04-12T01:50:15.538Z,2.30
2023-04-12T01:52:02.827Z,2.38
2023-04-12T01:53:49.644Z,1.48
2023-04-12T01:55:26.527Z,1.75
2023-04-12T01:57:03.736Z,4.28
2023-04-12T01:58:43.675Z,3.67
2023-04-12T02:00:19.881Z,4.15
2023-04-12T02:01:54.284Z,2.63
2023-04-12T02:03:30.302Z,3.78
2023-04-12T02:05:07.951Z,2.20
2023-04-12T02:06:43.073Z,1.73
2023-04-12T02:08:16.289Z,3.00
2023-04-12T02:09:48.544Z,4.00
2023-04-12T02:11:26.107Z,2.55
2023-04-12T02:13:02.547Z,2.08
2023-04-12T02:14:38.208Z,3.20
2023-04-12T02:16:13.928Z,2.65
2023-04-12T02:17:46.255Z,2.63
2023-04-12T02:19:20.334Z,3.95
2023-04-12T02:20:52.539Z,3.22
2023-04-12T02:22:25.720Z,2.38
2023-04-12T02:24:00.395Z,3.28
2023-04-12T02:25:35.982Z,2.70
2023-04-12T02:27:09.894Z,2.38
2023-04-12T02:28:46.027Z,6.18
2023-04-12T02:30:22.730Z,4.28
2023-04-12T02:31:59.288Z,3.95
2023-04-12T02:33:34.591Z,1.83
2023-04-12T02:35:10.360Z,2.15
2023-04-12T02:36:47.703Z,2.50
2023-04-12T02:38:20.908Z,2.72
2023-04-12T02:39:56.660Z,3.53
2023-04-12T02:41:30.840Z,3.35
2023-04-12T02:43:03.049Z,2.67
2023-04-12T02:44:36.463Z,2.83
2023-04-12T02:46:26.939Z,1.42
2023-04-12T02:48:05.227Z,3.13
2023-04-12T02:49:39.004Z,2.45
2023-04-12T02:51:13.040Z,4.07
2023-04-12T02:52:48.023Z,2.10
2023-04-12T02:54:21.857Z,3.17
2023-04-12T02:56:02.164Z,1.92
2023-04-12T02:57:36.857Z,2.78
2023-04-12T03:01:08.410Z,2.72
2023-04-12T03:03:01.425Z,1.42
2023-04-12T03:04:39.826Z,1.98
2023-04-12T03:06:17.526Z,2.17
2023-04-12T03:07:51.023Z,4.25
2023-04-12T03:09:28.699Z,2.72
2023-04-12T03:11:02.229Z,3.53
2023-04-12T03:12:34.726Z,5.60
2023-04-12T03:14:25.189Z,2.03
2023-04-12T03:16:01.098Z,2.90
2023-04-12T03:17:41.065Z,4.22
2023-04-12T03:19:14.790Z,2.50
2023-04-12T03:20:52.364Z,1.35
2023-04-12T03:22:26.519Z,2.63
2023-04-12T03:24:05.204Z,1.88
2023-04-12T03:25:38.644Z,2.90
2023-04-12T03:27:26.285Z,2.08
2023-04-12T03:29:05.058Z,2.08
2023-04-12T03:30:41.040Z,2.47
2023-04-12T03:32:14.372Z,1.77
2023-04-12T03:33:48.888Z,1.20
2023-04-12T03:35:33.041Z,1.92
2023-04-12T03:37:07.100Z,1.80
2023-04-12T03:38:45.747Z,2.00
2023-04-12T03:40:19.326Z,3.03
2023-04-12T03:42:01.050Z,1.30
2023-04-12T03:43:36.050Z,2.95
2023-04-12T03:45:12.845Z,2.70
2023-04-12T03:46:49.686Z,1.98
2023-04-12T03:48:23.925Z,2.10
2023-04-12T03:50:11.082Z,1.52
2023-04-12T03:51:53.654Z,1.65
2023-04-12T03:53:27.001Z,4.70
2023-04-12T03:55:01.231Z,2.35
2023-04-12T03:56:33.551Z,2.50
2023-04-12T03:58:13.411Z,1.45
2023-04-12T03:59:49.587Z,2.30
2023-04-12T04:01:27.406Z,4.35
2023-04-12T04:03:04.643Z,3.83
2023-04-12T04:04:44.545Z,1.77
2023-04-12T04:06:20.563Z,2.80
2023-04-12T04:07:54.156Z,1.17
2023-04-12T04:09:27.959Z,3.28
2023-04-12T04:11:01.826Z,1.73
2023-04-12T04:12:42.656Z,2.75
2023-04-12T04:14:18.789Z,2.25
2023-04-12T04:15:59.449Z,2.60
2023-04-12T04:17:33.948Z,2.90
2023-04-12T04:19:07.679Z,1.65
2023-04-12T04:20:39.837Z,2.45
2023-04-12T04:22:13.781Z,1.30
2023-04-12T04:23:49.059Z,0.93
2023-04-12T04:25:25.147Z,2.85
2023-04-12T04:27:00.118Z,3.05
2023-04-12T04:28:35.124Z,2.53
2023-04-12T04:30:10.393Z,2.38
2023-04-12T04:31:48.839Z,1.75
2023-04-12T04:33:22.111Z,2.15
2023-04-12T04:34:59.714Z,2.10
2023-04-12T04:36:39.217Z,1.73
2023-04-12T04:38:13.200Z,1.67
2023-04-12T04:39:47.746Z,2.55
2023-04-12T04:41:22.610Z,2.50
2023-04-12T04:43:01.164Z,0.93
2023-04-12T04:44:38.127Z,1.95
2023-04-12T04:46:13.892Z,1.70
2023-04-12T04:47:46.425Z,2.75
2023-04-12T04:49:19.713Z,2.08
2023-04-12T04:50:53.194Z,2.15
2023-04-12T04:52:28.154Z,1.35
2023-04-12T04:54:06.728Z,2.13
2023-04-12T04:55:41.521Z,2.97
2023-04-12T04:57:15.003Z,1.92
2023-04-12T04:58:48.204Z,1.70
2023-04-12T05:00:21.867Z,0.65
2023-04-12T05:02:00.851Z,1.95
2023-04-12T05:03:34.936Z,1.88
2023-04-12T05:05:09.642Z,1.77
2023-04-12T05:06:43.480Z,1.95
2023-04-12T05:08:18.798Z,1.48
2023-04-12T05:09:55.139Z,0.98
2023-04-12T05:11:28.765Z,1.05
2023-04-12T05:13:02.047Z,1.98
2023-04-12T05:14:46.735Z,1.25
2023-04-12T05:16:21.063Z,1.27
2023-04-12T05:17:54.286Z,1.27
2023-04-12T05:19:27.564Z,2.00
2023-04-12T05:21:03.826Z,2.60
2023-04-12T05:22:37.457Z,2.30
2023-04-12T05:24:10.638Z,0.93
2023-04-12T05:25:48.262Z,1.42
2023-04-12T05:27:22.859Z,2.22
2023-04-12T05:28:57.586Z,0.88
2023-04-12T05:30:31.434Z,1.15
2023-04-12T05:32:05.138Z,0.88
2023-04-12T05:33:38.289Z,1.33
2023-04-12T05:35:11.598Z,1.13
2023-04-12T05:36:46.654Z,1.23
2023-04-12T05:38:20.468Z,1.17
2023-04-12T05:39:58.001Z,3.92
2023-04-12T05:41:31.286Z,1.10
2023-04-12T05:43:05.991Z,0.98
2023-04-12T05:44:40.829Z,2.55
2023-04-12T05:46:18.537Z,1.20
2023-04-12T05:47:56.179Z,0.63
2023-04-12T05:49:31.174Z,0.98
2023-04-12T05:51:06.855Z,1.48
2023-04-12T05:52:40.584Z,1.67
2023-04-12T05:54:15.766Z,1.58
2023-04-12T05:55:48.920Z,1.10
2023-04-12T05:58:58.940Z,1.00
2023-04-12T06:00:32.369Z,0.70
2023-04-12T06:02:05.815Z,2.85
2023-04-12T06:03:41.566Z,0.98
2023-04-12T06:05:17.681Z,1.50
2023-04-12T06:06:51.218Z,1.25
2023-04-12T06:08:24.468Z,0.70
2023-04-12T06:09:57.736Z,0.68
2023-04-12T06:11:31.684Z,0.65
2023-04-12T06:13:05.240Z,0.95
2023-04-12T06:14:40.762Z,0.95
2023-04-12T06:16:15.133Z,1.15
2023-04-12T06:17:50.802Z,1.05
2023-04-12T06:19:24.812Z,0.70
2023-04-12T06:20:58.852Z,0.70
2023-04-12T06:22:33.413Z,1.00
2023-04-12T06:24:07.937Z,0.70
2023-04-12T06:25:41.574Z,1.67
2023-04-12T06:27:15.533Z,0.82
2023-04-12T06:28:49.162Z,1.15
2023-04-12T06:30:24.096Z,0.57
2023-04-12T06:32:00.740Z,1.13
2023-04-12T06:33:34.097Z,1.23
2023-04-12T06:35:08.914Z,1.42
2023-04-12T06:36:43.421Z,0.57
2023-04-12T06:38:16.812Z,0.40
2023-04-12T06:39:49.998Z,0.43
2023-04-12T06:41:23.349Z,0.88
2023-04-12T06:43:06.057Z,0.22
2023-04-12T06:44:39.570Z,0.40
2023-04-12T06:46:15.517Z,2.42
2023-04-12T06:47:48.743Z,0.93
2023-04-12T06:49:22.180Z,0.55
2023-04-12T06:50:55.335Z,0.60
2023-04-12T06:52:28.536Z,0.80
2023-04-12T06:54:01.764Z,0.47
2023-04-12T06:55:35.591Z,0.52
2023-04-12T06:57:11.322Z,0.80
2023-04-12T06:58:44.706Z,0.73
2023-04-12T07:00:18.630Z,0.28
2023-04-12T07:01:53.208Z,0.52
2023-04-12T07:03:28.285Z,1.90
2023-04-12T07:05:01.581Z,0.75
2023-04-12T07:06:34.921Z,1.77
2023-04-12T07:08:10.481Z,0.40
2023-04-12T07:09:44.025Z,1.05
2023-04-12T07:11:21.632Z,0.75
2023-04-12T07:12:56.663Z,0.35
2023-04-12T07:14:29.829Z,0.50
2023-04-12T07:16:03.374Z,0.28
2023-04-12T07:17:38.043Z,0.57
2023-04-12T07:19:11.384Z,0.70
2023-04-12T07:20:44.769Z,1.77
2023-04-12T07:22:17.931Z,0.85
2023-04-12T07:23:52.061Z,0.60
2023-04-12T07:25:25.224Z,0.77
2023-04-12T07:26:58.408Z,0.50
2023-04-12T07:28:31.698Z,0.40
2023-04-12T07:30:05.878Z,0.80
2023-04-12T07:31:39.200Z,1.17
2023-04-12T07:33:19.675Z,0.73
2023-04-12T07:34:53.693Z,0.40
2023-04-12T07:36:27.358Z,0.32
2023-04-12T07:38:00.983Z,0.47
2023-04-12T07:39:36.017Z,0.75
2023-04-12T07:41:09.556Z,0.35
2023-04-12T07:42:42.722Z,0.22
2023-04-12T07:44:15.890Z,0.40
2023-04-12T07:45:49.317Z,0.20
2023-04-12T07:47:21.629Z,0.32
2023-04-12T07:48:56.228Z,0.40
2023-04-12T07:50:29.723Z,1.52
2023-04-12T07:52:03.038Z,0.20
2023-04-12T07:53:36.312Z,0.55
2023-04-12T07:55:10.067Z,0.17
2023-04-12T07:56:58.140Z,0.65
2023-04-12T07:58:31.864Z,0.52
2023-04-12T08:00:07.053Z,0.30
2023-04-12T08:01:46.282Z,0.28
2023-04-12T08:03:20.494Z,0.38
2023-04-12T08:04:55.566Z,0.30
2023-04-12T08:06:30.660Z,0.50
2023-04-12T08:08:06.432Z,0.98
2023-04-12T08:09:39.620Z,0.35
2023-04-12T08:11:12.742Z,0.75
2023-04-12T08:12:45.970Z,1.58
2023-04-12T08:14:19.121Z,0.35
2023-04-12T08:15:52.724Z,0.68
2023-04-12T08:17:28.539Z,0.60
2023-04-12T08:19:01.814Z,1.58
2023-04-12T08:20:36.433Z,0.55
2023-04-12T08:22:10.793Z,1.23
2023-04-12T08:23:45.238Z,0.32
2023-04-12T08:25:18.624Z,0.32
2023-04-12T08:26:52.261Z,0.68
2023-04-12T08:28:28.443Z,0.60
2023-04-12T08:30:01.724Z,0.32
2023-04-12T08:31:35.486Z,0.25
2023-04-12T08:33:08.692Z,0.25
2023-04-12T08:34:43.692Z,0.25
2023-04-12T08:36:20.005Z,0.10
2023-04-12T08:37:53.513Z,0.82
2023-04-12T08:39:26.650Z,0.68
2023-04-12T08:41:03.306Z,0.88
2023-04-12T08:42:37.916Z,0.55
2023-04-12T08:44:30.526Z,0.10
2023-04-12T08:46:04.287Z,0.20
2023-04-12T08:47:40.662Z,0.50
2023-04-12T08:49:14.128Z,0.60
2023-04-12T08:50:50.564Z,0.28
2023-04-12T08:52:25.161Z,0.45
2023-04-12T08:53:58.558Z,0.50
2023-04-12T08:55:32.020Z,0.30
2023-04-12T08:57:08.443Z,2.20
2023-04-12T08:58:45.928Z,0.70
2023-04-12T09:00:21.451Z,0.68
2023-04-12T09:01:56.550Z,0.63
2023-04-12T09:03:33.548Z,0.40
2023-04-12T09:05:09.580Z,0.10
2023-04-12T09:06:43.017Z,0.90
2023-04-12T09:08:18.308Z,0.65
2023-04-12T09:09:52.077Z,0.40
2023-04-12T09:11:27.741Z,0.40
2023-04-12T09:13:01.367Z,0.70
2023-04-12T09:14:34.550Z,0.47
2023-04-12T09:16:08.019Z,0.90
2023-04-12T09:17:43.127Z,0.45
2023-04-12T09:19:16.808Z,0.38
2023-04-12T09:20:49.964Z,0.68
2023-04-12T09:22:36.048Z,0.30
2023-04-12T09:24:14.566Z,0.30
2023-04-12T09:25:51.726Z,0.52
2023-04-12T09:27:25.307Z,0.63
2023-04-12T09:28:58.584Z,0.65
2023-04-12T09:30:41.693Z,0.10
2023-04-12T09:32:14.826Z,0.65
2023-04-12T09:33:48.319Z,0.35
2023-04-12T09:35:35.439Z,0.70
2023-04-12T09:37:16.030Z,0.95
2023-04-12T09:39:02.388Z,1.13
2023-04-12T09:40:38.021Z,0.63
2023-04-12T09:42:29.864Z,0.30
2023-04-12T09:44:06.134Z,0.57
2023-04-12T09:45:40.407Z,0.32
2023-04-12T09:47:14.309Z,0.52
2023-04-12T09:48:52.267Z,0.40
2023-04-12T09:50:28.410Z,0.30
2023-04-12T09:52:02.072Z,0.30
2023-04-12T09:53:37.304Z,1.45
2023-04-12T09:55:12.672Z,0.77
2023-04-12T09:56:48.995Z,0.88
2023-04-12T09:58:23.954Z,0.63
2023-04-12T10:01:37.381Z,0.65
2023-04-12T10:03:13.464Z,0.70
2023-04-12T10:04:49.390Z,0.40
2023-04-12T10:06:23.619Z,0.30
2023-04-12T10:07:58.173Z,0.65
2023-04-12T10:09:35.513Z,0.50
2023-04-12T10:11:09.133Z,0.32
2023-04-12T10:12:47.172Z,0.60
2023-04-12T10:14:22.450Z,0.25
2023-04-12T10:15:56.708Z,0.65
2023-04-12T10:17:30.123Z,1.35
2023-04-12T10:19:04.983Z,0.30
2023-04-12T10:22:19.309Z,0.40
2023-04-12T10:23:52.548Z,0.25
2023-04-12T10:25:30.675Z,0.40
2023-04-12T10:27:04.680Z,0.22
2023-04-12T10:28:39.269Z,0.25
2023-04-12T10:30:27.113Z,0.10
2023-04-12T10:32:19.827Z,0.10
2023-04-12T10:33:56.118Z,0.00
2023-04-12T10:35:30.355Z,0.63
2023-04-12T10:37:04.287Z,0.40
2023-04-12T10:38:48.444Z,0.50
2023-04-12T10:40:24.422Z,0.55
2023-04-12T10:42:20.690Z,0.10
2023-04-12T10:44:27.319Z,0.40
2023-04-12T10:46:05.139Z,0.10
2023-04-12T10:48:01.239Z,0.68
2023-04-12T10:49:34.792Z,0.30
2023-04-12T10:51:23.006Z,0.25
2023-04-12T10:53:27.113Z,0.20
2023-04-12T10:55:29.992Z,0.35
2023-04-12T10:57:05.776Z,0.30
2023-04-12T10:59:01.091Z,0.17
2023-04-12T11:01:12.287Z,0.00
2023-04-12T11:03:11.555Z,0.20
2023-04-12T11:05:09.148Z,0.85
2023-04-12T11:06:59.817Z,0.28
2023-04-12T11:08:45.757Z,0.30
2023-04-12T11:10:36.575Z,0.70
2023-04-12T11:12:15.022Z,0.10
2023-04-12T11:13:48.325Z,0.50
2023-04-12T11:15:27.954Z,0.20
2023-04-12T11:17:26.276Z,0.98
2023-04-12T11:19:00.475Z,0.50
2023-04-12T11:20:34.354Z,0.20
2023-04-12T11:22:10.684Z,0.68
2023-04-12T11:23:45.543Z,0.50
2023-04-12T11:25:19.117Z,0.65
2023-04-12T11:26:53.824Z,0.30
2023-04-12T11:28:30.468Z,0.15
2023-04-12T11:30:05.271Z,0.38
2023-04-12T11:31:45.649Z,0.25
2023-04-12T11:33:36.802Z,0.20
2023-04-12T11:35:10.638Z,0.30
2023-04-12T11:36:46.679Z,0.30
2023-04-12T11:38:20.077Z,0.20
2023-04-12T11:39:56.785Z,0.20
2023-04-12T11:41:29.925Z,1.15
2023-04-12T11:43:03.155Z,0.28
2023-04-12T11:44:52.361Z,0.47
2023-04-12T11:46:35.362Z,0.60
2023-04-12T11:48:10.870Z,1.05
2023-04-12T11:49:50.654Z,0.52
2023-04-12T11:51:27.387Z,0.25
2023-04-12T11:53:12.871Z,0.57
2023-04-12T11:54:47.980Z,0.28
2023-04-12T11:56:21.267Z,0.30
2023-04-12T11:57:55.793Z,0.95
2023-04-12T11:59:33.977Z,0.32
2023-04-12T12:01:07.497Z,0.28
2023-04-12T12:02:52.347Z,0.30
2023-04-12T12:04:36.588Z,0.98
2023-04-12T12:06:11.102Z,2.92
2023-04-12T12:07:44.564Z,1.35
2023-04-12T12:09:18.068Z,0.43
2023-04-12T12:11:06.358Z,0.65
2023-04-12T12:12:44.827Z,0.50
2023-04-12T12:14:20.331Z,0.85
2023-04-12T12:15:54.162Z,0.40
2023-04-12T12:17:28.995Z,0.43
2023-04-12T12:19:05.485Z,0.32
2023-04-12T12:20:48.381Z,0.22
2023-04-12T12:22:23.370Z,0.73
2023-04-12T12:23:58.592Z,0.60
2023-04-12T12:25:32.125Z,0.20
2023-04-12T12:27:06.032Z,0.28
2023-04-12T12:28:40.303Z,0.38
2023-04-12T12:30:15.130Z,0.30
2023-04-12T12:33:29.087Z,0.95
2023-04-12T12:35:14.407Z,1.13
2023-04-12T12:36:56.646Z,0.88
2023-04-12T12:38:37.789Z,1.08
2023-04-12T12:40:14.466Z,0.90
2023-04-12T12:41:56.026Z,0.65
2023-04-12T12:43:29.167Z,1.23
2023-04-12T12:45:04.311Z,0.82
2023-04-12T12:46:52.019Z,1.83
2023-04-12T12:48:28.120Z,1.00
2023-04-12T12:50:01.373Z,1.85
2023-04-12T12:51:34.588Z,1.75
2023-04-12T12:53:10.190Z,1.27
2023-04-12T12:54:43.365Z,2.13
2023-04-12T12:56:17.314Z,1.05
2023-04-12T12:58:07.513Z,1.75
2023-04-12T12:59:41.392Z,1.25
2023-04-12T13:01:14.567Z,1.17
2023-04-12T13:02:48.566Z,2.13
2023-04-12T13:04:21.884Z,2.38
2023-04-12T13:05:55.692Z,1.40
2023-04-12T13:07:28.970Z,1.13
2023-04-12T13:09:03.467Z,1.50
2023-04-12T13:10:36.620Z,1.10
2023-04-12T13:12:09.975Z,2.13
2023-04-12T13:13:43.211Z,1.40
2023-04-12T13:16:52.721Z,1.52
2023-04-12T13:18:25.953Z,1.50
2023-04-12T13:19:59.798Z,1.40
2023-04-12T13:21:33.091Z,1.27
2023-04-12T13:23:06.291Z,1.45
2023-04-12T13:24:41.073Z,1.50
2023-04-12T13:27:48.717Z,1.73
2023-04-12T13:29:21.908Z,1.50
2023-04-12T13:30:55.029Z,2.67
2023-04-12T13:32:28.303Z,2.05
2023-04-12T13:34:01.456Z,2.38
2023-04-12T13:35:34.614Z,1.60
2023-04-12T13:37:08.597Z,1.70
2023-04-12T13:38:41.791Z,1.63
2023-04-12T13:40:16.290Z,2.28
2023-04-12T13:41:49.500Z,1.77
2023-04-12T13:43:22.646Z,1.75
2023-04-12T13:44:56.876Z,2.15
2023-04-12T13:46:30.345Z,2.20
2023-04-12T13:48:03.669Z,1.67
2023-04-12T13:49:36.859Z,1.83
2023-04-12T13:51:10.927Z,1.55
2023-04-12T13:52:44.052Z,1.55
2023-04-12T13:54:17.394Z,2.67
2023-04-12T13:55:51.837Z,2.08
2023-04-12T13:57:25.181Z,2.38
2023-04-12T13:58:59.160Z,1.88
2023-04-12T14:00:32.678Z,1.30
2023-04-12T14:02:06.022Z,1.65
2023-04-12T14:03:39.681Z,0.98
2023-04-12T14:05:12.838Z,2.13
2023-04-12T14:06:46.291Z,1.95
2023-04-12T14:08:19.413Z,1.85
2023-04-12T14:09:53.576Z,2.53
2023-04-12T14:11:28.096Z,2.95
2023-04-12T14:13:01.654Z,1.77
2023-04-12T14:14:34.859Z,1.80
2023-04-12T14:16:09.263Z,2.78
2023-04-12T14:17:42.555Z,2.05
2023-04-12T14:19:16.695Z,1.23
2023-04-12T14:20:52.549Z,3.65
2023-04-12T14:22:26.017Z,3.88
2023-04-12T14:23:59.300Z,1.98
2023-04-12T14:25:32.541Z,1.40
2023-04-12T14:27:07.626Z,2.95
2023-04-12T14:28:40.828Z,1.98
2023-04-12T14:30:15.900Z,2.60
2023-04-12T14:31:50.792Z,3.05
2023-04-12T14:33:24.033Z,3.53
2023-04-12T14:34:57.470Z,3.55
2023-04-12T14:36:30.926Z,2.15
2023-04-12T14:38:05.991Z,3.17
2023-04-12T14:39:39.132Z,3.40
2023-04-12T14:41:13.914Z,3.72
2023-04-12T14:42:48.617Z,3.25
2023-04-12T14:44:23.836Z,4.47
2023-04-12T14:45:58.768Z,2.30
2023-04-12T14:47:32.096Z,2.30
2023-04-12T14:49:05.530Z,5.03
2023-04-12T14:50:39.096Z,3.58
2023-04-12T14:52:12.591Z,3.50
2023-04-12T14:53:46.307Z,3.55
2023-04-12T14:55:20.636Z,4.00
2023-04-12T14:56:56.143Z,3.08
2023-04-12T14:58:31.302Z,3.20
2023-04-12T15:00:12.310Z,3.58
2023-04-12T15:01:45.535Z,2.05
2023-04-12T15:03:19.308Z,3.05
2023-04-12T15:04:52.787Z,2.50
2023-04-12T15:06:27.147Z,3.58
2023-04-12T15:08:00.777Z,2.22
2023-04-12T15:09:34.070Z,4.13
2023-04-12T15:11:09.672Z,4.28
2023-04-12T15:12:42.796Z,4.15
2023-04-12T15:14:19.826Z,5.18
2023-04-12T15:15:53.106Z,2.00
2023-04-12T15:17:26.427Z,2.28
2023-04-12T15:19:02.762Z,2.83
2023-04-12T15:20:39.643Z,1.23
2023-04-12T15:22:13.221Z,1.85
2023-04-12T15:23:47.172Z,2.63
2023-04-12T15:25:20.870Z,1.35
2023-04-12T15:26:54.485Z,1.73
2023-04-12T15:28:27.860Z,1.13
2023-04-12T15:30:03.414Z,1.63
2023-04-12T15:31:36.607Z,1.20
2023-04-12T15:33:11.526Z,1.33
2023-04-12T15:34:44.912Z,2.85
2023-04-12T15:36:18.938Z,1.52
2023-04-12T15:37:52.415Z,1.80
2023-04-12T15:39:26.808Z,1.77
2023-04-12T15:41:02.610Z,1.42
2023-04-12T15:42:36.800Z,3.45
2023-04-12T15:44:13.510Z,1.60
2023-04-12T15:45:48.354Z,1.70
2023-04-12T15:48:54.586Z,3.00
2023-04-12T15:50:28.045Z,2.15
2023-04-12T15:52:01.333Z,1.50
2023-04-12T15:53:34.642Z,2.70
2023-04-12T15:55:11.460Z,1.50
2023-04-12T15:56:45.327Z,0.95
2023-04-12T15:58:18.421Z,1.80
2023-04-12T15:59:52.721Z,1.52
2023-04-12T16:01:27.764Z,2.13
2023-04-12T16:03:01.058Z,1.23
2023-04-12T16:04:34.931Z,1.40
2023-04-12T16:06:08.850Z,1.58
2023-04-12T16:07:42.006Z,2.80
2023-04-12T16:09:16.661Z,2.40
2023-04-12T16:10:50.373Z,4.07
2023-04-12T16:12:23.977Z,2.60
2023-04-12T16:13:57.090Z,4.85
2023-04-12T16:15:30.323Z,4.47
2023-04-12T16:17:05.066Z,2.25
2023-04-12T16:20:16.719Z,1.02
2023-04-12T16:21:50.470Z,1.80
2023-04-12T16:23:23.576Z,2.53
2023-04-12T16:24:57.870Z,1.48
2023-04-12T16:26:30.993Z,2.53
2023-04-12T16:28:05.371Z,1.60
2023-04-12T16:29:38.686Z,1.42
2023-04-12T16:31:15.362Z,2.13
2023-04-12T16:32:51.983Z,1.63
2023-04-12T16:34:25.292Z,1.25
2023-04-12T16:35:58.544Z,1.45
2023-04-12T16:37:32.571Z,1.00
2023-04-12T16:39:06.266Z,1.25
2023-04-12T16:40:39.748Z,1.00
2023-04-12T16:42:13.470Z,1.55
2023-04-12T16:43:46.718Z,0.90
2023-04-12T16:45:20.770Z,1.38
2023-04-12T16:46:54.064Z,1.73
2023-04-12T16:48:28.837Z,1.10
2023-04-12T16:50:02.346Z,1.60
2023-04-12T16:51:36.746Z,1.13
2023-04-12T16:54:44.598Z,1.70
2023-04-12T16:56:18.356Z,1.83
2023-04-12T16:57:53.656Z,1.30
2023-04-12T16:59:27.355Z,1.58
2023-04-12T17:01:01.056Z,1.85
2023-04-12T17:02:34.784Z,1.98
2023-04-12T17:04:09.530Z,1.33
2023-04-12T17:05:42.836Z,1.80
2023-04-12T17:07:16.481Z,1.83
2023-04-12T17:08:50.044Z,2.33
2023-04-12T17:10:25.746Z,1.70
2023-04-12T17:11:59.038Z,1.15
2023-04-12T17:13:32.216Z,2.80
2023-04-12T17:15:07.106Z,1.27
2023-04-12T17:18:14.340Z,1.80
2023-04-12T17:19:49.032Z,1.90
2023-04-12T17:21:22.330Z,1.45
2023-04-12T17:22:57.483Z,1.88
2023-04-12T17:24:30.829Z,2.67
2023-04-12T17:26:04.260Z,3.35
2023-04-12T17:27:38.256Z,4.85
2023-04-12T17:29:11.532Z,3.33
2023-04-12T17:30:45.090Z,4.75
2023-04-12T17:32:18.834Z,1.20
2023-04-12T17:33:52.192Z,1.48
2023-04-12T17:35:26.816Z,2.17
2023-04-12T17:37:00.400Z,1.92
2023-04-12T17:38:33.644Z,1.92
2023-04-12T17:40:10.464Z,2.10
2023-04-12T17:41:44.295Z,2.22
2023-04-12T17:43:17.716Z,2.17
2023-04-12T17:44:51.029Z,1.38
2023-04-12T17:46:25.024Z,1.65
2023-04-12T17:47:58.500Z,2.15
2023-04-12T17:49:32.282Z,2.90
2023-04-12T17:51:09.932Z,1.42
2023-04-12T17:52:43.944Z,3.47
2023-04-12T17:54:17.709Z,2.22
2023-04-12T17:55:51.710Z,2.15
2023-04-12T17:57:25.227Z,2.28
2023-04-12T17:58:58.719Z,2.47
2023-04-12T18:00:32.181Z,1.98
2023-04-12T18:02:05.941Z,3.28
2023-04-12T18:03:39.513Z,2.83
2023-04-12T18:05:13.502Z,2.50
2023-04-12T18:06:48.583Z,2.25
2023-04-12T18:08:24.834Z,3.00
2023-04-12T18:09:58.115Z,2.30
2023-04-12T18:11:31.725Z,3.42
2023-04-12T18:13:05.561Z,2.08
2023-04-12T18:14:40.355Z,1.38
2023-04-12T18:16:13.709Z,2.17
2023-04-12T18:17:47.029Z,1.75
2023-04-12T18:19:20.407Z,1.80
2023-04-12T18:20:53.776Z,2.05
2023-04-12T18:22:28.452Z,2.33
2023-04-12T18:24:02.824Z,1.77
2023-04-12T18:25:36.075Z,1.20
2023-04-12T18:27:09.506Z,1.15
2023-04-12T18:28:42.782Z,2.05
2023-04-12T18:30:17.248Z,2.92
2023-04-12T18:31:50.586Z,1.40
2023-04-12T18:33:24.210Z,1.45
2023-04-12T18:34:57.539Z,1.42
2023-04-12T18:36:31.529Z,1.20
2023-04-12T18:38:06.177Z,2.42
2023-04-12T18:39:39.543Z,1.50
2023-04-12T18:41:14.984Z,1.65
2023-04-12T18:42:48.403Z,1.67
2023-04-12T18:44:21.705Z,2.45
2023-04-12T18:45:55.829Z,0.98
2023-04-12T18:47:29.168Z,1.60
2023-04-12T18:49:04.388Z,1.58
2023-04-12T18:50:39.117Z,1.45
2023-04-12T18:52:12.512Z,0.93
2023-04-12T18:53:49.141Z,2.55
2023-04-12T18:55:22.433Z,3.35
2023-04-12T18:56:57.735Z,1.90
2023-04-12T18:58:46.076Z,1.73
2023-04-12T19:00:24.896Z,1.85
2023-04-12T19:01:58.407Z,2.03
2023-04-12T19:03:32.239Z,1.02
2023-04-12T19:05:06.411Z,1.67
2023-04-12T19:06:39.771Z,1.65
2023-04-12T19:08:13.810Z,2.92
2023-04-12T19:09:48.651Z,2.85
2023-04-12T19:11:23.186Z,3.38
2023-04-12T19:12:57.029Z,1.63
2023-04-12T19:14:31.603Z,2.58
2023-04-12T19:16:08.090Z,2.58
2023-04-12T19:17:41.714Z,1.75
2023-04-12T19:19:15.345Z,1.40
2023-04-12T19:20:48.722Z,0.90
2023-04-12T19:22:22.804Z,2.67
2023-04-12T19:23:56.396Z,1.80
2023-04-12T19:25:33.021Z,1.83
2023-04-12T19:27:07.058Z,1.75
2023-04-12T19:28:40.304Z,1.73
2023-04-12T19:30:14.720Z,1.30
2023-04-12T19:31:48.942Z,2.53
2023-04-12T19:33:22.300Z,1.42
2023-04-12T19:34:56.058Z,0.85
2023-04-12T19:36:29.565Z,1.75
2023-04-12T19:38:03.505Z,1.73
2023-04-12T19:39:37.883Z,2.03
2023-04-12T19:41:12.537Z,1.92
2023-04-12T19:42:46.559Z,2.55
2023-04-12T19:44:20.101Z,1.35
2023-04-12T19:45:53.491Z,1.88
2023-04-12T19:47:27.470Z,3.42
2023-04-12T19:49:01.161Z,2.45
2023-04-12T19:50:34.865Z,2.17
2023-04-12T19:52:08.146Z,2.08
2023-04-12T19:53:41.896Z,2.88
2023-04-12T19:55:15.858Z,2.72
2023-04-12T19:56:52.444Z,5.18
2023-04-12T19:58:26.313Z,2.92
2023-04-12T20:00:00.501Z,5.10
2023-04-12T20:01:43.011Z,2.10
2023-04-12T20:03:16.436Z,3.80
2023-04-12T20:04:49.796Z,3.10
2023-04-12T20:06:23.153Z,2.15
2023-04-12T20:07:56.588Z,3.35
2023-04-12T20:09:30.072Z,1.40
2023-04-12T20:11:03.809Z,1.60
2023-04-12T20:12:39.161Z,2.20
2023-04-12T20:14:12.564Z,3.22
2023-04-12T20:15:46.073Z,1.10
2023-04-12T20:17:19.635Z,2.22
2023-04-12T20:18:56.266Z,0.98
2023-04-12T20:20:29.999Z,1.60
2023-04-12T20:22:03.849Z,1.27
2023-04-12T20:23:37.273Z,2.00
2023-04-12T20:25:11.704Z,1.40
2023-04-12T20:26:46.305Z,1.10
2023-04-12T20:28:21.129Z,2.88
2023-04-12T20:29:54.715Z,1.77
2023-04-12T20:31:28.705Z,2.25
2023-04-12T20:33:02.209Z,3.00
2023-04-12T20:34:36.227Z,1.45
2023-04-12T20:36:11.129Z,4.65
2023-04-12T20:37:46.632Z,1.70
2023-04-12T20:39:19.920Z,2.47
2023-04-12T20:40:53.427Z,1.60
2023-04-12T20:42:27.160Z,2.20
2023-04-12T20:44:01.968Z,2.88
2023-04-12T20:45:37.970Z,1.10
2023-04-12T20:47:12.468Z,1.33
2023-04-12T20:48:48.602Z,1.20
2023-04-12T20:50:22.716Z,1.67
2023-04-12T20:51:57.338Z,1.48
2023-04-12T20:53:30.907Z,1.73
2023-04-12T20:55:05.216Z,1.25
2023-04-12T20:56:38.932Z,0.77
2023-04-12T20:58:13.072Z,0.82
2023-04-12T20:59:48.027Z,1.45
2023-04-12T21:02:54.654Z,0.90
2023-04-12T21:04:28.291Z,1.20
2023-04-12T21:06:03.701Z,0.93
2023-04-12T21:07:37.643Z,1.80
2023-04-12T21:09:10.869Z,1.17
2023-04-12T21:10:47.979Z,0.90
2023-04-12T21:12:21.201Z,1.40
2023-04-12T21:13:54.350Z,0.73
2023-04-12T21:15:30.250Z,1.40
2023-04-12T21:17:04.931Z,0.40
2023-04-12T21:18:38.395Z,1.90
2023-04-12T21:20:16.287Z,0.85
2023-04-12T21:21:51.007Z,0.85
2023-04-12T21:23:25.024Z,1.45
2023-04-12T21:24:59.004Z,1.42
2023-04-12T21:26:32.806Z,1.10
2023-04-12T21:28:06.909Z,1.23
2023-04-12T21:29:41.637Z,0.88
2023-04-12T21:31:17.040Z,1.77
2023-04-12T21:32:51.652Z,0.63
2023-04-12T21:34:25.005Z,2.05